createdAt,value
2022-12-11T00:00:47.434Z,73.26
2022-12-11T00:03:16.515Z,72.65
2022-12-11T00:05:43.981Z,72.59
2022-12-11T00:08:10.770Z,72.03
2022-12-11T00:10:37.939Z,72.11
2022-12-11T00:13:05.258Z,72.63
2022-12-11T00:15:31.586Z,73.13
2022-12-11T00:17:57.984Z,72.59
2022-12-11T00:20:24.716Z,72.75
2022-12-11T00:22:51.187Z,72.89
2022-12-11T00:25:17.741Z,72.89
2022-12-11T00:27:45.923Z,72.88
2022-12-11T00:30:12.927Z,73.12
2022-12-11T00:32:39.329Z,73.38
2022-12-11T00:35:06.073Z,72.75
2022-12-11T00:37:32.579Z,72.56
2022-12-11T00:39:58.998Z,72.75
2022-12-11T00:42:25.435Z,71.92
2022-12-11T00:44:52.100Z,72.37
2022-12-11T00:47:18.458Z,71.77
2022-12-11T00:49:49.555Z,71.39
2022-12-11T00:52:17.656Z,71.84
2022-12-11T00:54:44.138Z,72.02
2022-12-11T00:57:10.557Z,71.96
2022-12-11T00:59:37.035Z,72.54
2022-12-11T01:02:03.544Z,71.98
2022-12-11T01:04:30.072Z,71.64
2022-12-11T01:06:56.453Z,71.99
2022-12-11T01:09:41.609Z,71.56
2022-12-11T01:12:08.029Z,71.63
2022-12-11T01:14:34.498Z,71.11
2022-12-11T01:17:00.926Z,72.01
2022-12-11T01:19:27.323Z,71.82
2022-12-11T01:21:53.956Z,71.69
2022-12-11T01:24:20.505Z,71.61
2022-12-11T01:26:46.879Z,71.70
2022-12-11T01:29:13.275Z,71.29
2022-12-11T01:31:39.665Z,71.08
2022-12-11T01:34:06.170Z,71.46
2022-12-11T01:36:32.760Z,71.29
2022-12-11T01:38:59.193Z,70.70
2022-12-11T01:41:25.674Z,70.91
2022-12-11T01:44:08.426Z,71.23
2022-12-11T01:46:36.285Z,71.32
2022-12-11T01:49:07.521Z,71.32
2022-12-11T01:51:40.872Z,71.22
2022-12-11T01:54:11.345Z,71.10
2022-12-11T01:56:39.746Z,71.47
2022-12-11T01:59:09.370Z,70.90
2022-12-11T02:01:54.983Z,70.32
2022-12-11T02:04:21.436Z,70.33
2022-12-11T02:06:50.529Z,70.19
2022-12-11T02:09:35.008Z,70.52
2022-12-11T02:12:04.253Z,69.88
2022-12-11T02:14:49.370Z,70.28
2022-12-11T02:17:25.080Z,70.18
2022-12-11T02:20:07.090Z,70.56
2022-12-11T02:22:51.653Z,70.71
2022-12-11T02:25:46.730Z,71.17
2022-12-11T02:28:37.053Z,70.60
2022-12-11T02:31:27.549Z,70.82
2022-12-11T02:34:12.016Z,70.91
2022-12-11T02:36:43.430Z,71.10
2022-12-11T02:39:12.969Z,70.60
2022-12-11T02:41:44.395Z,70.12
2022-12-11T02:44:13.001Z,70.27
2022-12-11T02:46:40.209Z,69.82
2022-12-11T02:49:08.746Z,69.88
2022-12-11T02:51:39.565Z,70.36
2022-12-11T02:54:10.205Z,70.04
2022-12-11T02:56:41.789Z,70.31
2022-12-11T02:59:15.477Z,70.52
2022-12-11T03:01:43.012Z,70.50
2022-12-11T03:04:09.771Z,69.96
2022-12-11T03:06:41.464Z,69.06
2022-12-11T03:09:08.545Z,69.37
2022-12-11T03:11:34.877Z,69.36
2022-12-11T03:14:02.797Z,69.46
2022-12-11T03:16:33.777Z,68.96
2022-12-11T03:19:21.654Z,69.40
2022-12-11T03:22:00.409Z,69.41
2022-12-11T03:24:34.402Z,69.92
2022-12-11T03:27:25.981Z,69.34
2022-12-11T03:29:57.911Z,69.43
2022-12-11T03:32:29.730Z,68.76
2022-12-11T03:35:12.266Z,68.73
2022-12-11T03:37:42.186Z,68.93
2022-12-11T03:40:14.366Z,68.76
2022-12-11T03:42:44.917Z,68.63
2022-12-11T03:45:13.674Z,68.14
2022-12-11T03:47:42.348Z,68.77
2022-12-11T03:50:11.044Z,68.83
2022-12-11T03:52:45.720Z,68.72
2022-12-11T03:55:15.831Z,68.38
2022-12-11T03:57:42.481Z,68.34
2022-12-11T04:00:12.473Z,68.74
2022-12-11T04:02:39.466Z,68.73
2022-12-11T04:05:06.422Z,68.63
2022-12-11T04:07:32.833Z,68.48
2022-12-11T04:10:00.238Z,68.29
2022-12-11T04:12:26.618Z,68.63
2022-12-11T04:15:02.123Z,68.69
2022-12-11T04:17:53.438Z,67.93
2022-12-11T04:20:39.881Z,67.90
2022-12-11T04:23:29.851Z,68.07
2022-12-11T04:26:07.682Z,68.04
2022-12-11T04:28:34.341Z,68.12
2022-12-11T04:31:00.988Z,67.91
2022-12-11T04:33:27.815Z,68.24
2022-12-11T04:35:54.339Z,67.55
2022-12-11T04:38:20.669Z,67.65
2022-12-11T04:40:47.037Z,67.51
2022-12-11T04:43:13.375Z,66.85
2022-12-11T04:45:39.733Z,67.39
2022-12-11T04:48:06.265Z,67.47
2022-12-11T04:50:32.589Z,67.10
2022-12-11T04:52:58.961Z,68.21
2022-12-11T04:55:25.366Z,67.92
2022-12-11T04:57:51.682Z,67.45
2022-12-11T05:00:18.079Z,67.94
2022-12-11T05:02:44.526Z,67.16
2022-12-11T05:05:11.866Z,67.38
2022-12-11T05:07:39.771Z,67.41
2022-12-11T05:10:06.790Z,67.50
2022-12-11T05:12:33.368Z,66.79
2022-12-11T05:14:59.718Z,67.37
2022-12-11T05:17:26.101Z,67.77
2022-12-11T05:19:52.418Z,67.30
2022-12-11T05:22:19.194Z,67.96
2022-12-11T05:24:45.995Z,67.77
2022-12-11T05:27:12.501Z,67.41
2022-12-11T05:29:38.847Z,67.84
2022-12-11T05:32:05.490Z,68.05
2022-12-11T05:34:32.797Z,67.97
2022-12-11T05:36:59.107Z,68.24
2022-12-11T05:39:25.461Z,67.66
2022-12-11T05:41:51.792Z,68.06
2022-12-11T05:44:18.135Z,67.84
2022-12-11T05:46:44.494Z,67.74
2022-12-11T05:49:11.152Z,67.52
2022-12-11T05:51:39.485Z,68.09
2022-12-11T05:54:05.827Z,69.00
2022-12-11T05:56:34.600Z,69.07
2022-12-11T05:59:03.056Z,69.19
2022-12-11T06:01:40.143Z,68.88
2022-12-11T06:04:08.461Z,68.61
2022-12-11T06:06:35.974Z,68.29
2022-12-11T06:09:03.871Z,69.19
2022-12-11T06:11:32.045Z,69.48
2022-12-11T06:13:58.873Z,69.68
2022-12-11T06:16:25.589Z,70.09
2022-12-11T06:18:54.657Z,69.72
2022-12-11T06:21:29.882Z,69.50
2022-12-11T06:23:58.820Z,69.01
2022-12-11T06:26:26.078Z,69.22
2022-12-11T06:28:52.887Z,69.29
2022-12-11T06:31:19.682Z,69.72
2022-12-11T06:33:47.297Z,69.55
2022-12-11T06:36:16.316Z,69.73
2022-12-11T06:38:43.407Z,69.90
2022-12-11T06:41:10.244Z,70.18
2022-12-11T06:43:38.660Z,70.46
2022-12-11T06:46:06.918Z,70.67
2022-12-11T06:48:36.089Z,70.55
2022-12-11T06:51:06.901Z,71.19
2022-12-11T06:53:33.704Z,71.16
2022-12-11T06:56:05.291Z,70.41
2022-12-11T06:58:33.501Z,70.58
2022-12-11T07:00:59.978Z,70.53
2022-12-11T07:03:26.349Z,70.75
2022-12-11T07:05:52.666Z,70.81
2022-12-11T07:08:19.131Z,70.51
2022-12-11T07:10:45.502Z,70.48
2022-12-11T07:13:11.830Z,70.35
2022-12-11T07:15:40.520Z,69.95
2022-12-11T07:18:07.030Z,70.34
2022-12-11T07:20:33.343Z,70.23
2022-12-11T07:23:00.307Z,69.89
2022-12-11T07:25:26.687Z,70.60
2022-12-11T07:27:53.190Z,70.25
2022-12-11T07:30:19.561Z,69.91
2022-12-11T07:32:45.966Z,70.73
2022-12-11T07:35:12.610Z,71.40
2022-12-11T07:37:41.389Z,71.37
2022-12-11T07:40:08.481Z,71.80
2022-12-11T07:42:34.804Z,71.19
2022-12-11T07:45:01.116Z,71.40
2022-12-11T07:47:27.422Z,70.87
2022-12-11T07:49:56.805Z,70.23
2022-12-11T07:52:23.114Z,69.99
2022-12-11T07:54:49.818Z,69.99
2022-12-11T07:57:16.353Z,69.79
2022-12-11T07:59:42.715Z,69.83
2022-12-11T08:02:11.758Z,70.36
2022-12-11T08:04:38.633Z,70.16
2022-12-11T08:07:04.997Z,70.31
2022-12-11T08:09:31.448Z,69.87
2022-12-11T08:11:57.820Z,69.17
2022-12-11T08:14:24.147Z,69.02
2022-12-11T08:16:50.553Z,69.53
2022-12-11T08:19:17.852Z,69.29
2022-12-11T08:21:44.224Z,69.67
2022-12-11T08:26:37.653Z,69.30
2022-12-11T08:29:04.260Z,68.88
2022-12-11T08:31:30.744Z,69.22
2022-12-11T08:33:57.534Z,69.65
2022-12-11T08:36:25.162Z,69.53
2022-12-11T08:38:53.606Z,69.63
2022-12-11T08:41:26.593Z,69.28
2022-12-11T08:43:54.860Z,69.68
2022-12-11T08:46:23.859Z,69.76
2022-12-11T08:48:50.559Z,69.89
2022-12-11T08:51:20.653Z,69.99
2022-12-11T08:53:46.989Z,69.55
2022-12-11T08:56:16.401Z,70.30
2022-12-11T08:58:44.070Z,69.92
2022-12-11T09:01:12.468Z,69.28
2022-12-11T09:03:39.907Z,69.40
2022-12-11T09:06:11.973Z,68.83
2022-12-11T09:08:38.771Z,69.72
2022-12-11T09:11:11.183Z,70.01
2022-12-11T09:13:39.276Z,69.56
2022-12-11T09:16:09.797Z,69.02
2022-12-11T09:18:37.358Z,68.93
2022-12-11T09:21:06.846Z,68.78
2022-12-11T09:23:33.380Z,68.50
2022-12-11T09:26:00.316Z,69.25
2022-12-11T09:28:26.643Z,69.22
2022-12-11T09:30:53.024Z,69.19
2022-12-11T09:33:19.531Z,68.89
2022-12-11T09:35:46.161Z,69.27
2022-12-11T09:38:12.484Z,69.23
2022-12-11T09:40:43.190Z,69.20
2022-12-11T09:46:09.618Z,68.92
2022-12-11T09:48:38.187Z,69.16
2022-12-11T09:51:20.275Z,68.81
2022-12-11T09:53:50.116Z,68.51
2022-12-11T09:56:18.163Z,69.03
2022-12-11T09:58:53.566Z,68.81
2022-12-11T10:01:34.559Z,68.78
2022-12-11T10:04:16.113Z,68.28
2022-12-11T10:07:15.893Z,68.06
2022-12-11T10:09:56.566Z,68.05
2022-12-11T10:12:47.672Z,67.37
2022-12-11T10:15:46.022Z,67.84
2022-12-11T10:18:21.239Z,68.25
2022-12-11T10:20:49.830Z,67.88
2022-12-11T10:23:22.542Z,67.99
2022-12-11T10:26:14.205Z,68.46
2022-12-11T10:28:40.582Z,67.63
2022-12-11T10:31:19.139Z,67.61
2022-12-11T10:33:59.236Z,67.12
2022-12-11T10:36:40.960Z,67.01
2022-12-11T10:39:19.356Z,66.61
2022-12-11T10:41:54.114Z,66.32
2022-12-11T10:44:31.075Z,66.17
2022-12-11T10:47:15.413Z,66.09
2022-12-11T10:49:58.178Z,66.15
2022-12-11T10:52:31.512Z,66.29
2022-12-11T10:55:17.281Z,66.82
2022-12-11T10:57:43.962Z,65.36
2022-12-11T11:00:30.614Z,65.50
2022-12-11T11:02:58.151Z,65.78
2022-12-11T11:05:34.685Z,65.25
2022-12-11T11:08:24.884Z,65.69
2022-12-11T11:10:57.393Z,65.58
2022-12-11T11:13:25.877Z,64.77
2022-12-11T11:16:05.545Z,65.33
2022-12-11T11:18:33.517Z,64.91
2022-12-11T11:21:01.558Z,64.84
2022-12-11T11:23:28.599Z,65.20
2022-12-11T11:26:02.473Z,64.65
2022-12-11T11:28:57.602Z,64.89
2022-12-11T11:31:34.115Z,64.91
2022-12-11T11:34:07.775Z,65.34
2022-12-11T11:36:36.228Z,65.15
2022-12-11T11:39:02.508Z,64.84
2022-12-11T11:41:31.531Z,64.61
2022-12-11T11:44:00.539Z,64.93
2022-12-11T11:46:33.324Z,64.96
2022-12-11T11:49:18.422Z,64.29
2022-12-11T11:51:51.315Z,64.27
2022-12-11T11:54:30.302Z,63.90
2022-12-11T11:56:57.675Z,63.12
2022-12-11T11:59:36.259Z,63.17
2022-12-11T12:02:02.918Z,62.55
2022-12-11T12:04:34.980Z,62.17
2022-12-11T12:07:23.919Z,62.07
2022-12-11T12:10:12.275Z,62.01
2022-12-11T12:13:14.344Z,61.85
2022-12-11T12:15:54.251Z,62.22
2022-12-11T12:18:58.086Z,62.19
2022-12-11T12:21:35.269Z,62.29
2022-12-11T12:24:20.476Z,62.38
2022-12-11T12:26:55.758Z,62.15
2022-12-11T12:29:40.684Z,62.03
2022-12-11T12:32:31.556Z,62.46
2022-12-11T12:35:16.711Z,62.38
2022-12-11T12:38:20.859Z,61.67
2022-12-11T12:41:04.649Z,61.65
2022-12-11T12:43:53.402Z,61.23
2022-12-11T12:46:36.768Z,60.76
2022-12-11T12:49:04.820Z,60.86
2022-12-11T12:51:31.881Z,60.88
2022-12-11T12:54:06.558Z,60.46
2022-12-11T12:56:38.294Z,60.44
2022-12-11T12:59:04.654Z,59.64
2022-12-11T13:01:31.808Z,59.71
2022-12-11T13:04:07.331Z,58.59
2022-12-11T13:06:41.033Z,58.82
2022-12-11T13:09:18.775Z,57.99
2022-12-11T13:11:47.404Z,57.07
2022-12-11T13:14:13.675Z,57.15
2022-12-11T13:16:42.065Z,56.22
2022-12-11T13:19:23.720Z,55.50
2022-12-11T13:22:17.445Z,55.96
2022-12-11T13:24:47.794Z,55.57
2022-12-11T13:27:26.318Z,55.11
2022-12-11T13:30:08.468Z,55.40
2022-12-11T13:32:35.018Z,54.56
2022-12-11T13:35:06.829Z,55.65
2022-12-11T13:37:41.073Z,56.19
2022-12-11T13:40:17.258Z,55.90
2022-12-11T13:42:57.167Z,56.77
2022-12-11T13:45:28.960Z,56.57
2022-12-11T13:47:59.353Z,56.12
2022-12-11T13:50:30.913Z,56.08
2022-12-11T13:52:59.284Z,57.75
2022-12-11T13:55:29.978Z,59.04
2022-12-11T13:57:57.230Z,58.50
2022-12-11T14:00:26.797Z,59.30
2022-12-11T14:02:55.965Z,58.89
2022-12-11T14:05:22.772Z,57.80
2022-12-11T14:07:52.047Z,57.69
2022-12-11T14:10:22.857Z,58.23
2022-12-11T14:13:27.090Z,56.71
2022-12-11T14:15:54.370Z,56.46
2022-12-11T14:18:27.539Z,56.56
2022-12-11T14:21:05.188Z,57.01
2022-12-11T14:23:37.220Z,57.29
2022-12-11T14:26:15.484Z,57.16
2022-12-11T14:28:43.313Z,57.61
2022-12-11T14:31:15.724Z,58.08
2022-12-11T14:33:46.158Z,57.82
2022-12-11T14:36:15.381Z,57.66
2022-12-11T14:38:49.282Z,56.83
2022-12-11T14:41:21.861Z,57.00
2022-12-11T14:43:53.262Z,57.55
2022-12-11T14:46:38.429Z,57.90
2022-12-11T14:49:16.998Z,58.42
2022-12-11T14:51:44.480Z,58.08
2022-12-11T14:54:27.534Z,58.32
2022-12-11T14:56:54.508Z,58.54
2022-12-11T14:59:31.637Z,58.79
2022-12-11T15:02:00.887Z,58.85
2022-12-11T15:04:32.343Z,58.59
2022-12-11T15:06:59.697Z,58.42
2022-12-11T15:09:29.583Z,58.37
2022-12-11T15:12:07.497Z,58.59
2022-12-11T15:14:34.327Z,59.45
2022-12-11T15:17:00.742Z,59.90
2022-12-11T15:19:31.414Z,60.38
2022-12-11T15:22:05.662Z,61.31
2022-12-11T15:24:41.735Z,61.56
2022-12-11T15:27:26.405Z,62.15
2022-12-11T15:29:54.002Z,62.97
2022-12-11T15:32:21.676Z,63.12
2022-12-11T15:34:59.598Z,62.38
2022-12-11T15:37:32.602Z,62.44
2022-12-11T15:40:01.282Z,62.71
2022-12-11T15:42:39.971Z,62.66
2022-12-11T15:45:08.751Z,63.06
2022-12-11T15:47:35.142Z,63.21
2022-12-11T15:50:21.297Z,62.38
2022-12-11T15:52:48.540Z,62.68
2022-12-11T15:55:15.115Z,63.26
2022-12-11T15:57:46.600Z,63.00
2022-12-11T16:00:18.705Z,62.98
2022-12-11T16:02:45.754Z,63.25
2022-12-11T16:05:12.859Z,63.36
2022-12-11T16:07:39.557Z,63.33
2022-12-11T16:10:07.426Z,63.24
2022-12-11T16:12:33.873Z,63.80
2022-12-11T16:15:00.326Z,63.58
2022-12-11T16:17:26.759Z,63.93
2022-12-11T16:19:54.032Z,63.54
2022-12-11T16:22:23.525Z,65.53
2022-12-11T16:24:54.530Z,65.63
2022-12-11T16:27:23.358Z,65.46
2022-12-11T16:29:51.058Z,64.84
2022-12-11T16:32:17.599Z,63.59
2022-12-11T16:34:44.028Z,63.76
2022-12-11T16:37:11.363Z,63.85
2022-12-11T16:39:38.382Z,63.46
2022-12-11T16:42:05.950Z,63.67
2022-12-11T16:44:32.754Z,62.78
2022-12-11T16:46:59.097Z,63.15
2022-12-11T16:49:25.449Z,63.27
2022-12-11T16:51:51.788Z,63.25
2022-12-11T16:54:24.417Z,63.49
2022-12-11T16:56:55.839Z,63.73
2022-12-11T16:59:25.221Z,63.71
2022-12-11T17:01:51.625Z,63.83
2022-12-11T17:04:22.610Z,63.52
2022-12-11T17:06:48.997Z,63.62
2022-12-11T17:09:21.453Z,63.81
2022-12-11T17:11:47.793Z,64.51
2022-12-11T17:14:23.405Z,64.46
2022-12-11T17:16:50.255Z,64.00
2022-12-11T17:19:16.593Z,63.89
2022-12-11T17:21:51.933Z,63.95
2022-12-11T17:24:38.039Z,63.87
2022-12-11T17:27:13.363Z,64.21
2022-12-11T17:29:39.732Z,63.35
2022-12-11T17:32:08.450Z,63.91
2022-12-11T17:34:38.377Z,64.25
2022-12-11T17:37:10.755Z,64.75
2022-12-11T17:39:37.704Z,64.84
2022-12-11T17:42:08.918Z,64.67
2022-12-11T17:44:40.208Z,64.52
2022-12-11T17:47:11.085Z,64.55
2022-12-11T17:49:42.693Z,64.36
2022-12-11T17:52:34.426Z,64.36
2022-12-11T17:54:57.079Z,63.87
2022-12-11T17:57:26.567Z,63.71
2022-12-11T18:00:05.154Z,63.91
2022-12-11T18:02:36.991Z,63.73
2022-12-11T18:05:11.735Z,63.79
2022-12-11T18:07:44.981Z,64.17
2022-12-11T18:10:16.750Z,64.10
2022-12-11T18:12:48.424Z,63.74
2022-12-11T18:15:20.361Z,64.29
2022-12-11T18:17:49.869Z,63.71
2022-12-11T18:20:18.808Z,63.49
2022-12-11T18:22:45.211Z,64.15
2022-12-11T18:25:17.173Z,63.64
2022-12-11T18:27:49.074Z,63.30
2022-12-11T18:30:15.451Z,63.68
2022-12-11T18:32:54.768Z,64.14
2022-12-11T18:35:21.495Z,63.97
2022-12-11T18:37:47.848Z,64.39
2022-12-11T18:40:14.214Z,64.86
2022-12-11T18:42:40.567Z,63.87
2022-12-11T18:45:07.582Z,63.18
2022-12-11T18:47:33.966Z,63.50
2022-12-11T18:50:07.110Z,63.39
2022-12-11T18:52:34.425Z,64.04
2022-12-11T18:55:00.790Z,63.96
2022-12-11T18:57:27.233Z,64.55
2022-12-11T18:59:53.932Z,64.71
2022-12-11T19:02:21.085Z,64.96
2022-12-11T19:04:47.762Z,64.69
2022-12-11T19:07:14.208Z,64.77
2022-12-11T19:09:44.822Z,63.82
2022-12-11T19:12:14.078Z,64.71
2022-12-11T19:14:40.417Z,63.99
2022-12-11T19:17:07.110Z,64.95
2022-12-11T19:19:34.010Z,65.02
2022-12-11T19:22:00.395Z,65.54
2022-12-11T19:24:26.899Z,65.90
2022-12-11T19:26:53.389Z,65.82
2022-12-11T19:29:29.763Z,66.06
2022-12-11T19:31:56.296Z,66.23
2022-12-11T19:34:23.378Z,66.99
2022-12-11T19:36:50.047Z,67.63
2022-12-11T19:39:17.111Z,68.64
2022-12-11T19:41:44.840Z,69.05
2022-12-11T19:44:11.872Z,69.61
2022-12-11T19:46:39.413Z,69.46
2022-12-11T19:49:05.975Z,70.05
2022-12-11T19:51:41.226Z,70.62
2022-12-11T19:54:11.627Z,70.23
2022-12-11T19:56:38.561Z,70.73
2022-12-11T19:59:07.070Z,70.52
2022-12-11T20:01:36.191Z,70.82
2022-12-11T20:04:08.622Z,70.89
2022-12-11T20:06:37.634Z,70.88
2022-12-11T20:09:06.124Z,70.71
2022-12-11T20:11:33.294Z,71.09
2022-12-11T20:14:00.033Z,70.40
2022-12-11T20:16:46.326Z,71.35
2022-12-11T20:19:13.254Z,71.63
2022-12-11T20:21:39.624Z,71.67
2022-12-11T20:24:06.338Z,71.70
2022-12-11T20:26:35.877Z,72.36
2022-12-11T20:29:07.285Z,72.00
2022-12-11T20:31:34.469Z,71.67
2022-12-11T20:34:00.889Z,71.02
2022-12-11T20:36:27.365Z,71.29
2022-12-11T20:38:53.894Z,71.72
2022-12-11T20:41:23.789Z,71.81
2022-12-11T20:43:50.644Z,71.53
2022-12-11T20:46:18.418Z,71.54
2022-12-11T20:48:45.622Z,71.53
2022-12-11T20:51:13.960Z,71.52
2022-12-11T20:53:41.577Z,71.76
2022-12-11T20:56:14.348Z,72.23
2022-12-11T20:58:41.037Z,72.47
2022-12-11T21:01:12.613Z,72.59
2022-12-11T21:03:41.993Z,72.00
2022-12-11T21:06:16.888Z,72.06
2022-12-11T21:08:43.274Z,72.23
2022-12-11T21:11:09.986Z,71.46
2022-12-11T21:13:37.227Z,71.63
2022-12-11T21:16:07.612Z,71.60
2022-12-11T21:18:34.852Z,71.37
2022-12-11T21:21:01.217Z,71.41
2022-12-11T21:23:28.022Z,71.43
2022-12-11T21:25:54.516Z,71.63
2022-12-11T21:28:21.113Z,72.23
2022-12-11T21:30:47.591Z,72.01
2022-12-11T21:33:14.250Z,71.82
2022-12-11T21:35:40.663Z,71.66
2022-12-11T21:38:07.239Z,71.98
2022-12-11T21:40:34.006Z,71.96
2022-12-11T21:43:00.396Z,72.15
2022-12-11T21:45:59.105Z,72.40
2022-12-11T21:48:13.523Z,72.52
2022-12-11T21:50:41.075Z,72.40
2022-12-11T21:53:07.507Z,72.85
2022-12-11T21:55:34.136Z,73.00
2022-12-11T21:58:00.622Z,73.12
2022-12-11T22:00:28.148Z,72.31
2022-12-11T22:02:54.613Z,71.97
2022-12-11T22:05:21.178Z,72.48
2022-12-11T22:07:48.757Z,72.54
2022-12-11T22:10:15.258Z,71.79
2022-12-11T22:12:41.783Z,71.88
2022-12-11T22:15:08.999Z,71.63
2022-12-11T22:17:37.030Z,71.63
2022-12-11T22:20:05.381Z,71.26
2022-12-11T22:22:32.436Z,70.89
2022-12-11T22:24:58.892Z,70.66
2022-12-11T22:27:32.537Z,71.17
2022-12-11T22:29:58.955Z,70.86
2022-12-11T22:32:25.329Z,71.72
2022-12-11T22:34:51.767Z,71.90
2022-12-11T22:37:21.243Z,71.92
2022-12-11T22:39:47.599Z,72.10
2022-12-11T22:42:15.924Z,71.89
2022-12-11T22:44:42.331Z,72.14
2022-12-11T22:47:08.703Z,71.85
2022-12-11T22:49:36.270Z,72.17
2022-12-11T22:52:08.374Z,72.12
2022-12-11T22:54:34.705Z,72.00
2022-12-11T22:57:05.765Z,71.71
2022-12-11T22:59:35.789Z,71.40
2022-12-11T23:02:05.944Z,70.83
2022-12-11T23:04:35.581Z,71.14
2022-12-11T23:07:01.914Z,71.61
2022-12-11T23:09:28.290Z,71.22
2022-12-11T23:11:55.600Z,71.52
2022-12-11T23:14:24.282Z,71.10
2022-12-11T23:16:53.089Z,71.15
2022-12-11T23:19:25.240Z,71.32
2022-12-11T23:21:52.111Z,71.45
2022-12-11T23:24:21.079Z,71.02
2022-12-11T23:26:47.994Z,69.83
2022-12-11T23:29:14.525Z,69.79
2022-12-11T23:31:40.844Z,70.30
2022-12-11T23:34:07.177Z,70.48
2022-12-11T23:36:33.564Z,69.73
2022-12-11T23:39:05.826Z,70.20
2022-12-11T23:41:35.316Z,69.79
2022-12-11T23:44:01.866Z,69.31
2022-12-11T23:46:28.618Z,69.56
2022-12-11T23:48:59.670Z,69.42
2022-12-11T23:51:26.108Z,69.99
2022-12-11T23:54:03.834Z,70.04
2022-12-11T23:56:30.290Z,69.75
2022-12-11T23:58:57.108Z,70.32
